createdAt,value
2023-01-27T00:02:42.921Z,6.22
2023-01-27T00:05:28.758Z,5.65
2023-01-27T00:08:15.159Z,6.28
2023-01-27T00:11:19.944Z,6.32
2023-01-27T00:14:05.961Z,6.40
2023-01-27T00:16:52.233Z,5.35
2023-01-27T00:19:38.202Z,6.30
2023-01-27T00:22:42.834Z,6.18
2023-01-27T00:25:28.790Z,5.43
2023-01-27T00:28:22.982Z,5.18
2023-01-27T00:31:29.544Z,5.68
2023-01-27T00:34:15.842Z,5.18
2023-01-27T00:37:01.578Z,4.90
2023-01-27T00:39:47.480Z,5.28
2023-01-27T00:42:33.270Z,5.20
2023-01-27T00:45:37.745Z,5.15
2023-01-27T00:48:24.811Z,4.95
2023-01-27T00:51:11.495Z,5.15
2023-01-27T00:53:59.297Z,4.07
2023-01-27T00:56:45.211Z,5.53
2023-01-27T00:59:31.907Z,4.50
2023-01-27T01:02:18.069Z,6.25
2023-01-27T01:05:04.112Z,6.10
2023-01-27T01:07:50.024Z,4.80
2023-01-27T01:10:38.003Z,4.32
2023-01-27T01:13:24.027Z,5.57
2023-01-27T01:16:19.174Z,4.68
2023-01-27T01:19:04.931Z,4.40
2023-01-27T01:21:50.819Z,4.43
2023-01-27T01:24:36.614Z,3.97
2023-01-27T01:27:22.943Z,4.25
2023-01-27T01:30:09.841Z,4.90
2023-01-27T01:32:56.977Z,4.47
2023-01-27T01:35:43.558Z,3.92
2023-01-27T01:38:29.656Z,4.07
2023-01-27T01:41:18.634Z,4.32
2023-01-27T01:44:31.033Z,3.15
2023-01-27T01:47:19.159Z,3.67
2023-01-27T01:50:05.589Z,3.60
2023-01-27T01:52:52.226Z,3.58
2023-01-27T01:55:39.611Z,3.80
2023-01-27T01:58:28.113Z,3.30
2023-01-27T02:01:19.094Z,3.20
2023-01-27T02:04:09.632Z,3.38
2023-01-27T02:07:07.069Z,3.38
2023-01-27T02:09:55.213Z,3.25
2023-01-27T02:12:41.309Z,3.13
2023-01-27T02:15:29.384Z,3.38
2023-01-27T02:18:15.107Z,3.13
2023-01-27T02:21:01.301Z,3.28
2023-01-27T02:23:56.433Z,3.50
2023-01-27T02:26:44.389Z,3.05
2023-01-27T02:29:30.045Z,3.33
2023-01-27T02:32:23.751Z,3.38
2023-01-27T02:35:13.305Z,3.30
2023-01-27T02:37:59.693Z,3.28
2023-01-27T02:40:49.068Z,3.30
2023-01-27T02:43:35.223Z,3.70
2023-01-27T02:46:21.447Z,3.55
2023-01-27T02:49:07.571Z,3.00
2023-01-27T02:51:54.419Z,3.08
2023-01-27T02:54:41.360Z,3.40
2023-01-27T02:57:27.634Z,3.25
2023-01-27T03:00:33.657Z,3.35
2023-01-27T03:03:19.726Z,3.38
2023-01-27T03:06:05.896Z,3.35
2023-01-27T03:08:51.895Z,3.95
2023-01-27T03:11:56.291Z,3.30
2023-01-27T03:15:01.314Z,3.42
2023-01-27T03:18:05.922Z,3.65
2023-01-27T03:20:52.301Z,3.70
2023-01-27T03:23:38.624Z,3.22
2023-01-27T03:26:25.037Z,2.95
2023-01-27T03:29:33.959Z,3.58
2023-01-27T03:32:20.787Z,3.83
2023-01-27T03:35:23.384Z,3.30
2023-01-27T03:38:31.875Z,3.70
2023-01-27T03:41:36.183Z,3.47
2023-01-27T03:44:40.752Z,3.47
2023-01-27T03:47:27.256Z,3.15
2023-01-27T03:50:19.344Z,3.22
2023-01-27T03:53:05.725Z,3.80
2023-01-27T03:55:51.845Z,3.17
2023-01-27T03:58:38.052Z,3.78
2023-01-27T04:01:24.523Z,3.28
2023-01-27T04:04:30.241Z,3.60
2023-01-27T04:07:20.013Z,3.40
2023-01-27T04:10:06.757Z,3.70
2023-01-27T04:12:52.821Z,3.35
2023-01-27T04:15:38.618Z,3.70
2023-01-27T04:18:24.363Z,3.75
2023-01-27T04:21:10.074Z,3.30
2023-01-27T04:23:56.550Z,3.33
2023-01-27T04:26:43.897Z,3.58
2023-01-27T04:29:31.783Z,3.15
2023-01-27T04:32:17.673Z,3.03
2023-01-27T04:35:03.592Z,3.58
2023-01-27T04:37:49.808Z,3.30
2023-01-27T04:40:35.699Z,3.10
2023-01-27T04:43:21.309Z,3.10
2023-01-27T04:46:07.267Z,3.22
2023-01-27T04:48:53.092Z,3.40
2023-01-27T04:51:39.027Z,3.03
2023-01-27T04:54:24.860Z,3.10
2023-01-27T04:57:10.655Z,3.60
2023-01-27T04:59:56.490Z,3.55
2023-01-27T05:02:43.313Z,3.30
2023-01-27T05:05:29.052Z,2.88
2023-01-27T05:08:15.313Z,3.70
2023-01-27T05:11:01.561Z,3.42
2023-01-27T05:13:47.383Z,3.20
2023-01-27T05:16:33.319Z,3.70
2023-01-27T05:19:19.167Z,3.70
2023-01-27T05:22:05.110Z,3.15
2023-01-27T05:24:51.057Z,3.17
2023-01-27T05:27:37.415Z,3.47
2023-01-27T05:30:23.357Z,3.10
2023-01-27T05:33:10.989Z,3.20
2023-01-27T05:36:01.622Z,2.90
2023-01-27T05:38:47.570Z,3.00
2023-01-27T05:41:34.913Z,2.75
2023-01-27T05:44:20.873Z,2.92
2023-01-27T05:47:06.831Z,2.95
2023-01-27T05:49:52.872Z,3.10
2023-01-27T05:52:38.496Z,3.38
2023-01-27T05:55:24.423Z,3.80
2023-01-27T05:58:10.244Z,3.78
2023-01-27T06:00:56.153Z,4.15
2023-01-27T06:03:43.035Z,3.60
2023-01-27T06:06:30.780Z,3.42
2023-01-27T06:09:16.432Z,3.50
2023-01-27T06:12:02.389Z,3.50
2023-01-27T06:14:48.040Z,3.88
2023-01-27T06:17:34.104Z,3.67
2023-01-27T06:20:21.025Z,3.58
2023-01-27T06:23:10.341Z,3.40
2023-01-27T06:25:56.802Z,3.53
2023-01-27T06:28:43.094Z,3.47
2023-01-27T06:31:29.407Z,5.20
2023-01-27T06:34:15.806Z,4.38
2023-01-27T06:37:01.682Z,3.70
2023-01-27T06:39:47.356Z,3.67
2023-01-27T06:42:33.403Z,3.50
2023-01-27T06:45:19.542Z,3.70
2023-01-27T06:48:05.610Z,4.00
2023-01-27T06:50:53.299Z,3.58
2023-01-27T06:53:39.884Z,3.58
2023-01-27T06:56:25.821Z,3.83
2023-01-27T06:59:11.757Z,3.13
2023-01-27T07:01:57.953Z,3.78
2023-01-27T07:04:43.730Z,3.72
2023-01-27T07:07:29.685Z,3.95
2023-01-27T07:10:16.021Z,3.92
2023-01-27T07:13:07.207Z,3.97
2023-01-27T07:15:56.746Z,3.53
2023-01-27T07:18:42.821Z,4.10
2023-01-27T07:21:28.481Z,4.13
2023-01-27T07:24:14.247Z,4.38
2023-01-27T07:27:00.300Z,3.80
2023-01-27T07:29:46.117Z,3.20
2023-01-27T07:32:32.051Z,4.22
2023-01-27T07:35:18.209Z,4.20
2023-01-27T07:38:05.539Z,3.63
2023-01-27T07:40:51.746Z,4.40
2023-01-27T07:43:37.625Z,3.70
2023-01-27T07:46:26.750Z,3.88
2023-01-27T07:49:12.719Z,3.95
2023-01-27T07:51:58.662Z,4.50
2023-01-27T07:54:44.476Z,4.97
2023-01-27T07:57:30.264Z,4.68
2023-01-27T08:00:16.475Z,3.80
2023-01-27T08:03:03.100Z,3.50
2023-01-27T08:05:49.564Z,3.92
2023-01-27T08:08:37.970Z,3.92
2023-01-27T08:11:23.979Z,3.50
2023-01-27T08:14:09.956Z,3.88
2023-01-27T08:16:55.869Z,4.55
2023-01-27T08:19:42.039Z,4.47
2023-01-27T08:22:31.407Z,4.43
2023-01-27T08:25:17.275Z,4.30
2023-01-27T08:28:03.044Z,4.80
2023-01-27T08:30:52.076Z,4.85
2023-01-27T08:33:39.194Z,5.63
2023-01-27T08:36:25.530Z,5.15
2023-01-27T08:39:11.961Z,4.93
2023-01-27T08:41:58.170Z,5.63
2023-01-27T08:44:43.851Z,4.78
2023-01-27T08:47:29.744Z,5.45
2023-01-27T08:50:16.087Z,5.07
2023-01-27T08:53:04.183Z,5.05
2023-01-27T08:55:50.641Z,4.07
2023-01-27T08:58:36.585Z,4.70
2023-01-27T09:01:22.585Z,4.80
2023-01-27T09:04:08.816Z,5.10
2023-01-27T09:06:54.477Z,4.82
2023-01-27T09:09:40.510Z,4.90
2023-01-27T09:12:26.455Z,4.38
2023-01-27T09:15:13.512Z,4.93
2023-01-27T09:18:00.257Z,5.25
2023-01-27T09:20:47.011Z,5.78
2023-01-27T09:23:33.646Z,5.40
2023-01-27T09:26:19.552Z,5.53
2023-01-27T09:29:05.497Z,6.15
2023-01-27T09:31:51.372Z,5.30
2023-01-27T09:34:37.381Z,4.60
2023-01-27T09:37:25.894Z,5.65
2023-01-27T09:40:42.416Z,4.70
2023-01-27T09:43:54.289Z,5.30
2023-01-27T09:46:55.768Z,4.90
2023-01-27T09:50:05.444Z,4.93
2023-01-27T09:53:19.253Z,5.45
2023-01-27T09:56:10.888Z,5.18
2023-01-27T09:59:25.212Z,5.45
2023-01-27T10:02:11.356Z,5.25
2023-01-27T10:05:16.046Z,5.18
2023-01-27T10:08:11.510Z,4.32
2023-01-27T10:11:00.107Z,4.88
2023-01-27T10:14:22.758Z,3.95
2023-01-27T10:17:24.695Z,5.28
2023-01-27T10:20:14.069Z,4.70
2023-01-27T10:23:02.909Z,4.68
2023-01-27T10:25:57.729Z,4.95
2023-01-27T10:28:51.281Z,5.30
2023-01-27T10:31:44.232Z,4.88
2023-01-27T10:37:23.901Z,4.60
2023-01-27T10:40:48.206Z,4.70
2023-01-27T10:43:37.258Z,5.10
2023-01-27T10:46:47.779Z,5.18
2023-01-27T10:49:49.738Z,4.90
2023-01-27T10:52:40.577Z,4.93
2023-01-27T10:55:30.135Z,4.78
2023-01-27T10:58:26.033Z,5.05
2023-01-27T11:01:22.878Z,4.85
2023-01-27T11:04:16.726Z,4.82
2023-01-27T11:07:04.371Z,5.30
2023-01-27T11:10:19.829Z,5.05
2023-01-27T11:13:08.747Z,4.85
2023-01-27T11:15:54.859Z,5.32
2023-01-27T11:18:43.232Z,4.93
2023-01-27T11:21:30.848Z,5.55
2023-01-27T11:24:28.928Z,4.82
2023-01-27T11:27:24.287Z,5.10
2023-01-27T11:30:17.265Z,4.78
2023-01-27T11:33:18.780Z,15.23
2023-01-27T11:36:05.103Z,5.10
2023-01-27T11:38:52.285Z,4.90
2023-01-27T11:41:46.505Z,5.18
2023-01-27T11:44:34.466Z,5.95
2023-01-27T11:47:26.557Z,5.32
2023-01-27T11:50:21.072Z,5.20
2023-01-27T11:53:36.849Z,4.78
2023-01-27T11:56:24.499Z,5.45
2023-01-27T11:59:18.001Z,4.88
2023-01-27T12:02:07.095Z,5.82
2023-01-27T12:05:07.832Z,5.25
2023-01-27T12:08:01.968Z,5.50
2023-01-27T12:10:48.250Z,5.05
2023-01-27T12:13:34.437Z,4.70
2023-01-27T12:16:21.130Z,6.50
2023-01-27T12:19:24.063Z,5.63
2023-01-27T12:25:28.104Z,4.65
2023-01-27T12:28:25.264Z,5.60
2023-01-27T12:31:31.380Z,5.15
2023-01-27T12:34:28.117Z,5.47
2023-01-27T12:37:22.069Z,5.40
2023-01-27T12:40:19.745Z,5.65
2023-01-27T12:43:20.251Z,5.22
2023-01-27T12:46:19.178Z,4.53
2023-01-27T12:49:11.316Z,5.30
2023-01-27T12:51:57.454Z,5.93
2023-01-27T12:54:43.341Z,5.35
2023-01-27T12:57:30.406Z,4.70
2023-01-27T13:00:17.099Z,4.90
2023-01-27T13:03:07.633Z,5.13
2023-01-27T13:05:55.585Z,5.03
2023-01-27T13:08:41.769Z,4.53
2023-01-27T13:11:39.211Z,4.30
2023-01-27T13:14:30.113Z,4.93
2023-01-27T13:17:45.797Z,4.82
2023-01-27T13:20:38.107Z,4.80
2023-01-27T13:23:27.927Z,5.25
2023-01-27T13:26:21.590Z,4.82
2023-01-27T13:29:10.233Z,5.80
2023-01-27T13:32:06.908Z,5.30
2023-01-27T13:34:56.070Z,5.35
2023-01-27T13:38:08.408Z,4.45
2023-01-27T13:40:54.385Z,4.88
2023-01-27T13:43:41.629Z,5.00
2023-01-27T13:46:30.750Z,5.32
2023-01-27T13:49:28.867Z,6.03
2023-01-27T13:52:14.819Z,4.70
2023-01-27T13:55:00.916Z,4.95
2023-01-27T13:57:53.266Z,4.65
2023-01-27T14:00:53.147Z,4.20
2023-01-27T14:03:39.427Z,4.93
2023-01-27T14:06:28.353Z,4.28
2023-01-27T14:09:33.058Z,3.95
2023-01-27T14:12:43.506Z,4.07
2023-01-27T14:15:38.213Z,4.60
2023-01-27T14:18:28.295Z,4.78
2023-01-27T14:21:39.338Z,4.60
2023-01-27T14:27:29.526Z,3.80
2023-01-27T14:30:26.139Z,4.60
2023-01-27T14:33:21.084Z,3.33
2023-01-27T14:36:21.678Z,3.67
2023-01-27T14:39:33.904Z,3.67
2023-01-27T14:42:41.026Z,5.37
2023-01-27T14:45:33.378Z,5.38
2023-01-27T14:48:44.019Z,5.63
2023-01-27T14:51:39.992Z,6.50
2023-01-27T14:54:38.373Z,5.40
2023-01-27T14:57:37.333Z,4.70
2023-01-27T15:00:30.160Z,4.45
2023-01-27T15:03:23.089Z,4.05
2023-01-27T15:06:40.829Z,4.25
2023-01-27T15:09:39.187Z,4.47
2023-01-27T15:12:57.317Z,4.40
2023-01-27T15:16:09.898Z,4.70
2023-01-27T15:19:02.074Z,5.38
2023-01-27T15:21:58.711Z,6.07
2023-01-27T15:24:57.282Z,5.03
2023-01-27T15:27:44.748Z,5.70
2023-01-27T15:30:38.535Z,5.97
2023-01-27T15:33:50.083Z,6.03
2023-01-27T15:36:38.468Z,7.88
2023-01-27T15:39:35.549Z,6.25
2023-01-27T15:42:58.189Z,7.45
2023-01-27T15:45:46.592Z,6.47
2023-01-27T15:48:34.648Z,8.38
2023-01-27T15:51:21.130Z,8.23
2023-01-27T15:54:14.205Z,7.43
2023-01-27T15:57:04.611Z,8.38
2023-01-27T15:59:58.803Z,8.15
2023-01-27T16:02:46.996Z,7.55
2023-01-27T16:05:38.344Z,9.45
2023-01-27T16:08:24.782Z,8.32
2023-01-27T16:11:28.941Z,7.22
2023-01-27T16:14:15.793Z,8.05
2023-01-27T16:17:15.791Z,9.50
2023-01-27T16:20:19.997Z,8.25
2023-01-27T16:23:12.180Z,8.98
2023-01-27T16:26:30.130Z,9.32
2023-01-27T16:29:23.946Z,8.13
2023-01-27T16:32:22.111Z,8.70
2023-01-27T16:35:17.542Z,8.00
2023-01-27T16:38:08.483Z,6.93
2023-01-27T16:41:01.696Z,7.97
2023-01-27T16:43:54.728Z,8.43
2023-01-27T16:46:45.774Z,8.80
2023-01-27T16:49:37.565Z,7.60
2023-01-27T16:52:40.714Z,8.32
2023-01-27T16:55:27.525Z,8.48
2023-01-27T16:58:20.129Z,8.10
2023-01-27T17:01:06.829Z,9.43
2023-01-27T17:04:04.875Z,8.98
2023-01-27T17:06:59.205Z,8.38
2023-01-27T17:09:57.744Z,8.88
2023-01-27T17:12:46.998Z,8.48
2023-01-27T17:15:38.481Z,8.23
2023-01-27T17:18:25.255Z,8.60
2023-01-27T17:21:11.110Z,8.27
2023-01-27T17:24:06.752Z,8.77
2023-01-27T17:27:06.056Z,8.77
2023-01-27T17:30:02.124Z,8.15
2023-01-27T17:32:50.831Z,9.07
2023-01-27T17:35:38.039Z,7.93
2023-01-27T17:38:36.118Z,8.35
2023-01-27T17:41:37.230Z,8.35
2023-01-27T17:44:23.127Z,7.63
2023-01-27T17:47:18.680Z,8.35
2023-01-27T17:50:06.215Z,9.20
2023-01-27T17:52:54.037Z,8.45
2023-01-27T17:55:40.130Z,7.90
2023-01-27T17:58:27.105Z,7.97
2023-01-27T18:01:14.784Z,8.13
2023-01-27T18:04:01.206Z,7.97
2023-01-27T18:06:49.865Z,8.07
2023-01-27T18:09:44.055Z,7.43
2023-01-27T18:12:35.864Z,8.32
2023-01-27T18:15:37.749Z,8.23
2023-01-27T18:18:32.477Z,7.95
2023-01-27T18:21:26.789Z,8.50
2023-01-27T18:24:20.863Z,7.05
2023-01-27T18:27:23.017Z,7.40
2023-01-27T18:30:16.316Z,7.88
2023-01-27T18:33:04.631Z,7.68
2023-01-27T18:35:59.155Z,7.85
2023-01-27T18:38:50.696Z,7.15
2023-01-27T18:41:46.483Z,7.97
2023-01-27T18:44:36.191Z,7.10
2023-01-27T18:47:28.768Z,6.72
2023-01-27T18:50:18.574Z,6.85
2023-01-27T18:53:12.319Z,6.68
2023-01-27T18:56:00.073Z,6.90
2023-01-27T18:58:46.366Z,7.10
2023-01-27T19:01:35.133Z,7.22
2023-01-27T19:04:23.360Z,7.22
2023-01-27T19:07:17.874Z,7.93
2023-01-27T19:10:11.915Z,8.43
2023-01-27T19:13:01.743Z,6.63
2023-01-27T19:15:51.960Z,6.90
2023-01-27T19:18:39.117Z,7.28
2023-01-27T19:21:28.594Z,6.63
2023-01-27T19:24:15.084Z,7.20
2023-01-27T19:27:04.161Z,6.43
2023-01-27T19:29:51.110Z,6.68
2023-01-27T19:32:37.383Z,6.70
2023-01-27T19:35:25.459Z,5.88
2023-01-27T19:38:13.240Z,6.03
2023-01-27T19:40:59.850Z,6.03
2023-01-27T19:43:50.202Z,5.97
2023-01-27T19:46:37.298Z,6.03
2023-01-27T19:49:24.588Z,5.75
2023-01-27T19:52:11.199Z,4.68
2023-01-27T19:54:58.627Z,5.60
2023-01-27T19:57:45.644Z,5.22
2023-01-27T20:00:37.085Z,6.72
2023-01-27T20:03:23.757Z,6.18
2023-01-27T20:06:18.960Z,4.97
2023-01-27T20:09:05.211Z,6.20
2023-01-27T20:11:51.329Z,5.45
2023-01-27T20:14:37.245Z,5.05
2023-01-27T20:17:23.272Z,4.78
2023-01-27T20:20:10.032Z,5.18
2023-01-27T20:22:56.424Z,5.60
2023-01-27T20:25:42.440Z,5.30
2023-01-27T20:28:28.775Z,5.22
2023-01-27T20:31:22.640Z,6.93
2023-01-27T20:34:08.441Z,4.85
2023-01-27T20:36:54.347Z,4.90
2023-01-27T20:39:40.430Z,6.22
2023-01-27T20:42:26.313Z,4.32
2023-01-27T20:45:12.757Z,4.43
2023-01-27T20:47:59.948Z,3.97
2023-01-27T20:50:46.073Z,4.70
2023-01-27T20:53:34.331Z,4.25
2023-01-27T20:56:24.034Z,4.00
2023-01-27T20:59:09.932Z,4.70
2023-01-27T21:01:55.746Z,4.97
2023-01-27T21:04:41.518Z,5.05
2023-01-27T21:07:27.399Z,3.38
2023-01-27T21:10:13.202Z,3.67
2023-01-27T21:12:59.148Z,3.58
2023-01-27T21:15:49.024Z,4.30
2023-01-27T21:18:38.263Z,4.18
2023-01-27T21:21:27.348Z,3.95
2023-01-27T21:24:13.564Z,5.07
2023-01-27T21:26:59.753Z,5.15
2023-01-27T21:29:45.588Z,5.72
2023-01-27T21:32:31.601Z,6.10
2023-01-27T21:35:17.451Z,4.57
2023-01-27T21:38:03.464Z,4.60
2023-01-27T21:40:51.469Z,3.90
2023-01-27T21:43:56.619Z,4.20
2023-01-27T21:46:42.759Z,3.80
2023-01-27T21:49:29.037Z,3.70
2023-01-27T21:52:14.862Z,4.20
2023-01-27T21:55:02.541Z,4.20
2023-01-27T21:57:50.926Z,5.22
2023-01-27T22:00:36.691Z,5.65
2023-01-27T22:03:23.957Z,4.68
2023-01-27T22:06:10.533Z,6.20
2023-01-27T22:08:56.459Z,5.82
2023-01-27T22:11:42.221Z,4.90
2023-01-27T22:14:29.296Z,5.22
2023-01-27T22:17:16.349Z,3.80
2023-01-27T22:20:04.408Z,4.55
2023-01-27T22:22:51.991Z,10.05
2023-01-27T22:25:38.004Z,7.22
2023-01-27T22:28:24.378Z,4.35
2023-01-27T22:31:10.340Z,5.15
2023-01-27T22:33:55.938Z,4.60
2023-01-27T22:36:41.840Z,5.80
2023-01-27T22:39:27.719Z,4.45
2023-01-27T22:42:13.585Z,4.90
2023-01-27T22:44:59.796Z,5.00
2023-01-27T22:47:45.654Z,5.38
2023-01-27T22:50:31.398Z,5.95
2023-01-27T22:53:17.389Z,4.50
2023-01-27T22:56:04.161Z,5.28
2023-01-27T22:58:50.082Z,6.30
2023-01-27T23:01:36.109Z,5.05
2023-01-27T23:04:21.805Z,5.32
2023-01-27T23:07:07.494Z,5.35
2023-01-27T23:09:53.491Z,5.30
2023-01-27T23:12:39.117Z,5.20
2023-01-27T23:15:25.180Z,5.68
2023-01-27T23:18:11.472Z,5.28
2023-01-27T23:21:02.776Z,5.32
2023-01-27T23:23:51.011Z,5.80
2023-01-27T23:26:37.256Z,5.55
2023-01-27T23:29:25.295Z,5.88
2023-01-27T23:32:11.908Z,6.30
2023-01-27T23:34:57.670Z,6.18
2023-01-27T23:37:43.601Z,6.00
2023-01-27T23:40:29.478Z,6.00
2023-01-27T23:43:15.220Z,6.30
2023-01-27T23:46:00.937Z,6.28
2023-01-27T23:48:53.908Z,6.97
2023-01-27T23:51:40.066Z,6.28
2023-01-27T23:54:26.177Z,6.45
2023-01-27T23:57:11.865Z,7.07
2023-01-27T23:59:57.780Z,7.15
